sensor_id;sensor_type;location;lat;lon;timestamp;pressure;altitude;pressure_sealevel;temperature;humidity
10167;BME280;62970;53.130;8.244;2022-11-13T00:00:04;102966.47;;;3.37;68.63
10167;BME280;62970;53.130;8.244;2022-11-13T00:02:39;102959.59;;;3.37;68.47
10167;BME280;62970;53.130;8.244;2022-11-13T00:05:09;102967.34;;;3.37;68.81
10167;BME280;62970;53.130;8.244;2022-11-13T00:07:40;102963.88;;;3.37;68.73
10167;BME280;62970;53.130;8.244;2022-11-13T00:10:11;102963.88;;;3.37;68.62
10167;BME280;62970;53.130;8.244;2022-11-13T00:12:43;102961.28;;;3.37;68.59
10167;BME280;62970;53.130;8.244;2022-11-13T00:15:12;102962.13;;;3.36;68.78
10167;BME280;62970;53.130;8.244;2022-11-13T00:17:44;102965.50;;;3.35;68.71
10167;BME280;62970;53.130;8.244;2022-11-13T00:20:15;102959.47;;;3.34;68.44
10167;BME280;62970;53.130;8.244;2022-11-13T00:22:45;102957.72;;;3.33;68.59
10167;BME280;62970;53.130;8.244;2022-11-13T00:25:15;102946.53;;;3.33;68.79
10167;BME280;62970;53.130;8.244;2022-11-13T00:27:45;102948.28;;;3.34;69.06
10167;BME280;62970;53.130;8.244;2022-11-13T00:30:15;102945.69;;;3.34;68.70
10167;BME280;62970;53.130;8.244;2022-11-13T00:32:47;102949.97;;;3.33;68.79
10167;BME280;62970;53.130;8.244;2022-11-13T00:35:19;102945.63;;;3.32;68.88
10167;BME280;62970;53.130;8.244;2022-11-13T00:37:48;102943.00;;;3.31;68.71
10167;BME280;62970;53.130;8.244;2022-11-13T00:40:19;102946.41;;;3.30;68.62
10167;BME280;62970;53.130;8.244;2022-11-13T00:42:49;102941.19;;;3.28;69.03
10167;BME280;62970;53.130;8.244;2022-11-13T00:45:18;102941.19;;;3.28;68.83
10167;BME280;62970;53.130;8.244;2022-11-13T00:47:50;102935.91;;;3.25;68.66
10167;BME280;62970;53.130;8.244;2022-11-13T00:50:19;102936.72;;;3.24;69.09
10167;BME280;62970;53.130;8.244;2022-11-13T00:52:49;102937.53;;;3.23;68.98
10167;BME280;62970;53.130;8.244;2022-11-13T00:55:18;102929.72;;;3.22;68.66
10167;BME280;62970;53.130;8.244;2022-11-13T00:57:48;102926.28;;;3.21;68.96
10167;BME280;62970;53.130;8.244;2022-11-13T01:00:19;102929.72;;;3.22;68.98
10167;BME280;62970;53.130;8.244;2022-11-13T01:02:53;102936.59;;;3.21;69.26
10167;BME280;62970;53.130;8.244;2022-11-13T01:05:22;102946.91;;;3.21;69.20
10167;BME280;62970;53.130;8.244;2022-11-13T01:07:52;102945.19;;;3.22;69.10
10167;BME280;62970;53.130;8.244;2022-11-13T01:10:22;102938.28;;;3.21;69.03
10167;BME280;62970;53.130;8.244;2022-11-13T01:12:52;102934.81;;;3.20;69.22
10167;BME280;62970;53.130;8.244;2022-11-13T01:15:21;102933.94;;;3.20;68.76
10167;BME280;62970;53.130;8.244;2022-11-13T01:17:55;102933.00;;;3.18;69.12
10167;BME280;62970;53.130;8.244;2022-11-13T01:20:26;102932.19;;;3.19;68.89
10167;BME280;62970;53.130;8.244;2022-11-13T01:22:57;102922.69;;;3.18;68.88
10167;BME280;62970;53.130;8.244;2022-11-13T01:25:28;102921.81;;;3.17;69.00
10167;BME280;62970;53.130;8.244;2022-11-13T01:28:00;102916.59;;;3.16;68.92
10167;BME280;62970;53.130;8.244;2022-11-13T01:30:29;102921.81;;;3.17;68.90
10167;BME280;62970;53.130;8.244;2022-11-13T01:33:02;102916.59;;;3.16;69.29
10167;BME280;62970;53.130;8.244;2022-11-13T01:35:31;102915.72;;;3.15;69.39
10167;BME280;62970;53.130;8.244;2022-11-13T01:38:01;102912.19;;;3.13;69.06
10167;BME280;62970;53.130;8.244;2022-11-13T01:40:30;102918.22;;;3.13;69.30
10167;BME280;62970;53.130;8.244;2022-11-13T01:43:30;102918.97;;;3.11;69.24
10167;BME280;62970;53.130;8.244;2022-11-13T01:46:26;102911.13;;;3.08;68.99
10167;BME280;62970;53.130;8.244;2022-11-13T01:49:36;102901.56;;;3.05;69.19
10167;BME280;62970;53.130;8.244;2022-11-13T01:52:10;102896.34;;;3.04;69.25
10167;BME280;62970;53.130;8.244;2022-11-13T01:54:44;102892.88;;;3.03;69.02
10167;BME280;62970;53.130;8.244;2022-11-13T01:57:15;102892.88;;;3.03;68.93
10167;BME280;62970;53.130;8.244;2022-11-13T01:59:50;102884.28;;;3.03;68.97
10167;BME280;62970;53.130;8.244;2022-11-13T02:02:20;102883.47;;;3.04;68.91
10167;BME280;62970;53.130;8.244;2022-11-13T02:04:52;102876.53;;;3.03;68.98
10167;BME280;62970;53.130;8.244;2022-11-13T02:07:24;102880.88;;;3.04;69.19
10167;BME280;62970;53.130;8.244;2022-11-13T02:09:56;102879.19;;;3.04;69.52
10167;BME280;62970;53.130;8.244;2022-11-13T02:12:33;102879.19;;;3.04;69.05
10167;BME280;62970;53.130;8.244;2022-11-13T02:15:06;102866.28;;;3.04;69.09
10167;BME280;62970;53.130;8.244;2022-11-13T02:17:41;102873.22;;;3.05;69.54
10167;BME280;62970;53.130;8.244;2022-11-13T02:20:15;102867.19;;;3.05;69.34
10167;BME280;62970;53.130;8.244;2022-11-13T02:22:53;102868.94;;;3.06;69.13
10167;BME280;62970;53.130;8.244;2022-11-13T02:25:28;102877.66;;;3.09;69.56
10167;BME280;62970;53.130;8.244;2022-11-13T02:27:58;102869.13;;;3.10;69.67
10167;BME280;62970;53.130;8.244;2022-11-13T02:30:32;102858.88;;;3.12;69.75
10167;BME280;62970;53.130;8.244;2022-11-13T02:33:21;102854.59;;;3.12;69.71
10167;BME280;62970;53.130;8.244;2022-11-13T02:35:51;102853.84;;;3.15;69.46
10167;BME280;62970;53.130;8.244;2022-11-13T02:38:24;102854.78;;;3.17;69.77
10167;BME280;62970;53.130;8.244;2022-11-13T02:40:56;102852.19;;;3.17;69.40
10167;BME280;62970;53.130;8.244;2022-11-13T02:43:25;102848.81;;;3.18;69.52
10167;BME280;62970;53.130;8.244;2022-11-13T02:45:54;102853.97;;;3.18;69.60
10167;BME280;62970;53.130;8.244;2022-11-13T02:48:24;102853.97;;;3.18;69.39
10167;BME280;62970;53.130;8.244;2022-11-13T02:50:57;102856.47;;;3.17;69.69
10167;BME280;62970;53.130;8.244;2022-11-13T02:53:26;102853.78;;;3.13;69.44
10167;BME280;62970;53.130;8.244;2022-11-13T02:55:58;102852.00;;;3.12;69.86
10167;BME280;62970;53.130;8.244;2022-11-13T02:58:27;102850.19;;;3.10;69.58
10167;BME280;62970;53.130;8.244;2022-11-13T03:00:57;102857.88;;;3.08;69.52
10167;BME280;62970;53.130;8.244;2022-11-13T03:03:29;102846.56;;;3.05;69.46
10167;BME280;62970;53.130;8.244;2022-11-13T03:05:59;102855.03;;;3.02;69.44
10167;BME280;62970;53.130;8.244;2022-11-13T03:08:28;102857.56;;;3.01;69.85
10167;BME280;62970;53.130;8.244;2022-11-13T03:11:07;102855.69;;;2.97;69.59
10167;BME280;62970;53.130;8.244;2022-11-13T03:13:37;102846.94;;;2.93;69.63
10167;BME280;62970;53.130;8.244;2022-11-13T03:16:09;102852.84;;;2.91;69.85
10167;BME280;62970;53.130;8.244;2022-11-13T03:18:40;102847.53;;;2.88;70.07
10167;BME280;62970;53.130;8.244;2022-11-13T03:21:12;102842.25;;;2.85;70.10
10167;BME280;62970;53.130;8.244;2022-11-13T03:23:43;102840.44;;;2.82;69.62
10167;BME280;62970;53.130;8.244;2022-11-13T03:26:16;102836.03;;;2.79;70.04
10167;BME280;62970;53.130;8.244;2022-11-13T03:28:46;102844.59;;;2.78;70.16
10167;BME280;62970;53.130;8.244;2022-11-13T03:31:15;102831.72;;;2.78;69.79
10167;BME280;62970;53.130;8.244;2022-11-13T03:33:45;102834.22;;;2.77;70.22
10167;BME280;62970;53.130;8.244;2022-11-13T03:36:14;102833.34;;;2.76;70.12
10167;BME280;62970;53.130;8.244;2022-11-13T03:38:44;102832.47;;;2.76;69.77
10167;BME280;62970;53.130;8.244;2022-11-13T03:41:16;102834.16;;;2.75;70.29
10167;BME280;62970;53.130;8.244;2022-11-13T03:43:45;102830.69;;;2.75;70.33
10167;BME280;62970;53.130;8.244;2022-11-13T03:46:15;102831.50;;;2.74;70.14
10167;BME280;62970;53.130;8.244;2022-11-13T03:48:44;102837.56;;;2.74;69.88
10167;BME280;62970;53.130;8.244;2022-11-13T03:51:13;102834.16;;;2.75;69.93
10167;BME280;62970;53.130;8.244;2022-11-13T03:53:43;102822.16;;;2.76;70.15
10167;BME280;62970;53.130;8.244;2022-11-13T03:56:15;102828.94;;;2.74;70.17
10167;BME280;62970;53.130;8.244;2022-11-13T03:58:45;102831.59;;;2.75;70.10
10167;BME280;62970;53.130;8.244;2022-11-13T04:01:14;102827.31;;;2.76;70.28
10167;BME280;62970;53.130;8.244;2022-11-13T04:03:43;102822.09;;;2.74;69.93
10167;BME280;62970;53.130;8.244;2022-11-13T04:06:12;102822.09;;;2.74;70.23
10167;BME280;62970;53.130;8.244;2022-11-13T04:08:42;102816.06;;;2.74;70.00
10167;BME280;62970;53.130;8.244;2022-11-13T04:11:15;102817.75;;;2.73;70.40
10167;BME280;62970;53.130;8.244;2022-11-13T04:13:44;102806.50;;;2.71;70.31
10167;BME280;62970;53.130;8.244;2022-11-13T04:16:13;102804.75;;;2.70;70.40
10167;BME280;62970;53.130;8.244;2022-11-13T04:18:44;102809.84;;;2.69;70.13
10167;BME280;62970;53.130;8.244;2022-11-13T04:21:14;102805.50;;;2.68;70.27
10167;BME280;62970;53.130;8.244;2022-11-13T04:23:43;102800.34;;;2.68;70.60
10167;BME280;62970;53.130;8.244;2022-11-13T04:26:18;102810.59;;;2.66;70.47
10167;BME280;62970;53.130;8.244;2022-11-13T04:28:48;102802.03;;;2.67;70.21
10167;BME280;62970;53.130;8.244;2022-11-13T04:31:18;102801.22;;;2.68;70.58
10167;BME280;62970;53.130;8.244;2022-11-13T04:33:47;102798.66;;;2.68;70.24
10167;BME280;62970;53.130;8.244;2022-11-13T04:36:17;102793.50;;;2.68;70.65
10167;BME280;62970;53.130;8.244;2022-11-13T04:38:47;102796.97;;;2.69;70.26
10167;BME280;62970;53.130;8.244;2022-11-13T04:41:19;102784.78;;;2.65;70.36
10167;BME280;62970;53.130;8.244;2022-11-13T04:44:01;102789.84;;;2.63;70.57
10167;BME280;62970;53.130;8.244;2022-11-13T04:46:31;102777.78;;;2.62;70.27
10167;BME280;62970;53.130;8.244;2022-11-13T04:49:04;102773.34;;;2.58;70.56
10167;BME280;62970;53.130;8.244;2022-11-13T04:51:33;102766.44;;;2.57;70.62
10167;BME280;62970;53.130;8.244;2022-11-13T04:54:03;102769.81;;;2.56;70.66
10167;BME280;62970;53.130;8.244;2022-11-13T04:56:35;102773.22;;;2.55;70.54
10167;BME280;62970;53.130;8.244;2022-11-13T04:59:05;102767.94;;;2.52;70.31
10167;BME280;62970;53.130;8.244;2022-11-13T05:01:36;102772.09;;;2.48;70.33
10167;BME280;62970;53.130;8.244;2022-11-13T05:04:05;102764.22;;;2.45;70.36
10167;BME280;62970;53.130;8.244;2022-11-13T05:06:35;102768.38;;;2.42;70.30
10167;BME280;62970;53.130;8.244;2022-11-13T05:09:04;102767.38;;;2.38;70.52
10167;BME280;62970;53.130;8.244;2022-11-13T05:11:36;102766.38;;;2.35;70.74
10167;BME280;62970;53.130;8.244;2022-11-13T05:14:06;102766.31;;;2.33;70.46
10167;BME280;62970;53.130;8.244;2022-11-13T05:16:35;102767.94;;;2.31;70.43
10167;BME280;62970;53.130;8.244;2022-11-13T05:19:05;102761.91;;;2.31;70.45
10167;BME280;62970;53.130;8.244;2022-11-13T05:21:35;102762.72;;;2.30;70.75
10167;BME280;62970;53.130;8.244;2022-11-13T05:24:08;102761.78;;;2.28;70.70
10167;BME280;62970;53.130;8.244;2022-11-13T05:26:40;102769.44;;;2.26;70.68
10167;BME280;62970;53.130;8.244;2022-11-13T05:29:10;102759.06;;;2.25;70.46
10167;BME280;62970;53.130;8.244;2022-11-13T05:31:41;102760.78;;;2.24;70.51
10167;BME280;62970;53.130;8.244;2022-11-13T05:34:11;102762.41;;;2.22;70.50
10167;BME280;62970;53.130;8.244;2022-11-13T05:36:40;102750.34;;;2.21;70.47
10167;BME280;62970;53.130;8.244;2022-11-13T05:39:10;102760.53;;;2.20;70.50
10167;BME280;62970;53.130;8.244;2022-11-13T05:41:43;102755.34;;;2.18;70.96
10167;BME280;62970;53.130;8.244;2022-11-13T05:44:13;102760.41;;;2.16;70.90
10167;BME280;62970;53.130;8.244;2022-11-13T05:46:42;102755.13;;;2.13;71.04
10167;BME280;62970;53.130;8.244;2022-11-13T05:49:11;102747.34;;;2.12;70.59
10167;BME280;62970;53.130;8.244;2022-11-13T05:51:41;102740.31;;;2.08;70.92
10167;BME280;62970;53.130;8.244;2022-11-13T05:54:11;102738.50;;;2.05;70.90
10167;BME280;62970;53.130;8.244;2022-11-13T05:56:42;102730.63;;;2.02;71.01
10167;BME280;62970;53.130;8.244;2022-11-13T05:59:12;102728.94;;;2.03;71.03
10167;BME280;62970;53.130;8.244;2022-11-13T06:01:41;102724.63;;;2.02;71.05
10167;BME280;62970;53.130;8.244;2022-11-13T06:04:10;102730.63;;;2.02;70.93
10167;BME280;62970;53.130;8.244;2022-11-13T06:06:40;102732.34;;;2.02;70.66
10167;BME280;62970;53.130;8.244;2022-11-13T06:09:13;102728.00;;;2.01;71.01
10167;BME280;62970;53.130;8.244;2022-11-13T06:11:45;102730.56;;;2.01;71.13
10167;BME280;62970;53.130;8.244;2022-11-13T06:14:14;102721.97;;;2.00;70.77
10167;BME280;62970;53.130;8.244;2022-11-13T06:16:43;102722.78;;;1.99;70.72
10167;BME280;62970;53.130;8.244;2022-11-13T06:19:13;102719.28;;;1.97;70.57
10167;BME280;62970;53.130;8.244;2022-11-13T06:21:43;102714.00;;;1.94;70.83
10167;BME280;62970;53.130;8.244;2022-11-13T06:24:13;102716.44;;;1.91;70.94
10167;BME280;62970;53.130;8.244;2022-11-13T06:26:45;102716.31;;;1.88;71.19
10167;BME280;62970;53.130;8.244;2022-11-13T06:29:14;102716.25;;;1.87;70.71
10167;BME280;62970;53.130;8.244;2022-11-13T06:31:44;102723.91;;;1.85;70.98
10167;BME280;62970;53.130;8.244;2022-11-13T06:34:13;102716.94;;;1.82;70.99
10167;BME280;62970;53.130;8.244;2022-11-13T06:36:42;102716.88;;;1.81;70.96
10167;BME280;62970;53.130;8.244;2022-11-13T06:39:13;102715.97;;;1.80;70.85
10167;BME280;62970;53.130;8.244;2022-11-13T06:41:45;102716.78;;;1.79;70.84
10167;BME280;62970;53.130;8.244;2022-11-13T06:44:14;102721.06;;;1.79;70.80
10167;BME280;62970;53.130;8.244;2022-11-13T06:46:44;102712.41;;;1.77;70.68
10167;BME280;62970;53.130;8.244;2022-11-13T06:49:13;102721.75;;;1.75;70.87
10167;BME280;62970;53.130;8.244;2022-11-13T06:51:46;102722.56;;;1.74;71.13
10167;BME280;62970;53.130;8.244;2022-11-13T06:54:16;102719.09;;;1.73;71.25
10167;BME280;62970;53.130;8.244;2022-11-13T06:56:49;102719.91;;;1.72;71.15
10167;BME280;62970;53.130;8.244;2022-11-13T06:59:18;102718.22;;;1.73;70.96
10167;BME280;62970;53.130;8.244;2022-11-13T07:01:50;102719.03;;;1.72;71.15
10167;BME280;62970;53.130;8.244;2022-11-13T07:04:19;102716.47;;;1.72;70.86
10167;BME280;62970;53.130;8.244;2022-11-13T07:06:49;102713.09;;;1.73;71.33
10167;BME280;62970;53.130;8.244;2022-11-13T07:09:18;102713.97;;;1.73;71.09
10167;BME280;62970;53.130;8.244;2022-11-13T07:11:50;102707.13;;;1.74;71.40
10167;BME280;62970;53.130;8.244;2022-11-13T07:14:20;102707.19;;;1.75;70.98
10167;BME280;62970;53.130;8.244;2022-11-13T07:16:49;102702.09;;;1.77;71.14
10167;BME280;62970;53.130;8.244;2022-11-13T07:19:18;102712.53;;;1.80;71.23
10167;BME280;62970;53.130;8.244;2022-11-13T07:21:47;102704.94;;;1.83;71.21
10167;BME280;62970;53.130;8.244;2022-11-13T07:24:17;102708.47;;;1.85;71.34
10167;BME280;62970;53.130;8.244;2022-11-13T07:26:51;102700.06;;;1.89;71.60
10167;BME280;62970;53.130;8.244;2022-11-13T07:29:20;102695.16;;;1.95;71.79
10167;BME280;62970;53.130;8.244;2022-11-13T07:31:50;102700.50;;;2.00;71.64
10167;BME280;62970;53.130;8.244;2022-11-13T07:34:19;102697.25;;;2.04;71.33
10167;BME280;62970;53.130;8.244;2022-11-13T07:36:50;102686.19;;;2.06;71.34
10167;BME280;62970;53.130;8.244;2022-11-13T07:39:20;102692.34;;;2.10;71.39
10167;BME280;62970;53.130;8.244;2022-11-13T07:41:52;102682.13;;;2.11;71.51
10167;BME280;62970;53.130;8.244;2022-11-13T07:44:21;102682.25;;;2.14;71.27
10167;BME280;62970;53.130;8.244;2022-11-13T07:46:50;102685.00;;;2.19;71.27
10167;BME280;62970;53.130;8.244;2022-11-13T07:49:21;102684.28;;;2.22;71.28
10167;BME280;62970;53.130;8.244;2022-11-13T07:51:51;102685.34;;;2.27;71.60
10167;BME280;62970;53.130;8.244;2022-11-13T07:54:20;102685.53;;;2.31;71.52
10167;BME280;62970;53.130;8.244;2022-11-13T07:56:55;102691.69;;;2.35;71.33
10167;BME280;62970;53.130;8.244;2022-11-13T07:59:25;102689.38;;;2.41;71.42
10167;BME280;62970;53.130;8.244;2022-11-13T08:01:55;102695.63;;;2.47;71.48
10167;BME280;62970;53.130;8.244;2022-11-13T08:04:24;102702.78;;;2.55;71.77
10167;BME280;62970;53.130;8.244;2022-11-13T08:06:53;102702.28;;;2.63;71.88
10167;BME280;62970;53.130;8.244;2022-11-13T08:09:25;102692.22;;;2.69;71.68
10167;BME280;62970;53.130;8.244;2022-11-13T08:11:57;102680.44;;;2.76;71.36
10167;BME280;62970;53.130;8.244;2022-11-13T08:14:26;102682.44;;;2.83;71.79
10167;BME280;62970;53.130;8.244;2022-11-13T08:16:55;102678.44;;;2.90;71.74
10167;BME280;62970;53.130;8.244;2022-11-13T08:19:25;102683.00;;;2.97;71.33
10167;BME280;62970;53.130;8.244;2022-11-13T08:21:54;102672.03;;;3.02;71.53
10167;BME280;62970;53.130;8.244;2022-11-13T08:24:23;102674.00;;;3.09;71.76
10167;BME280;62970;53.130;8.244;2022-11-13T08:26:58;102666.44;;;3.14;71.29
10167;BME280;62970;53.130;8.244;2022-11-13T08:29:27;102667.50;;;3.19;71.34
10167;BME280;62970;53.130;8.244;2022-11-13T08:31:56;102672.00;;;3.25;71.26
10167;BME280;62970;53.130;8.244;2022-11-13T08:34:27;102665.25;;;3.28;71.24
10167;BME280;62970;53.130;8.244;2022-11-13T08:36:56;102665.47;;;3.34;71.34
10167;BME280;62970;53.130;8.244;2022-11-13T08:39:25;102671.66;;;3.39;71.77
10167;BME280;62970;53.130;8.244;2022-11-13T08:41:58;102672.72;;;3.44;71.73
10167;BME280;62970;53.130;8.244;2022-11-13T08:44:27;102676.34;;;3.50;71.58
10167;BME280;62970;53.130;8.244;2022-11-13T08:46:57;102676.50;;;3.54;71.28
10167;BME280;62970;53.130;8.244;2022-11-13T08:49:26;102674.09;;;3.59;71.72
10167;BME280;62970;53.130;8.244;2022-11-13T08:51:56;102672.47;;;3.62;71.38
10167;BME280;62970;53.130;8.244;2022-11-13T08:54:26;102673.47;;;3.66;71.27
10167;BME280;62970;53.130;8.244;2022-11-13T08:56:58;102663.25;;;3.69;71.39
10167;BME280;62970;53.130;8.244;2022-11-13T08:59:27;102666.03;;;3.75;71.29
10167;BME280;62970;53.130;8.244;2022-11-13T09:01:56;102671.38;;;3.80;71.33
10167;BME280;62970;53.130;8.244;2022-11-13T09:04:26;102670.63;;;3.84;71.29
10167;BME280;62970;53.130;8.244;2022-11-13T09:06:55;102663.94;;;3.89;71.51
10167;BME280;62970;53.130;8.244;2022-11-13T09:09:25;102658.97;;;3.95;71.83
10167;BME280;62970;53.130;8.244;2022-11-13T09:11:57;102665.22;;;4.01;71.53
10167;BME280;62970;53.130;8.244;2022-11-13T09:14:26;102661.97;;;4.07;71.46
10167;BME280;62970;53.130;8.244;2022-11-13T09:16:55;102656.13;;;4.13;71.38
10167;BME280;62970;53.130;8.244;2022-11-13T09:19:25;102656.31;;;4.19;71.50
10167;BME280;62970;53.130;8.244;2022-11-13T09:21:54;102656.47;;;4.23;71.62
10167;BME280;62970;53.130;8.244;2022-11-13T09:24:23;102652.28;;;4.27;71.25
10167;BME280;62970;53.130;8.244;2022-11-13T09:26:52;102654.06;;;4.29;71.41
10167;BME280;62970;53.130;8.244;2022-11-13T09:29:24;102657.59;;;4.31;71.74
10167;BME280;62970;53.130;8.244;2022-11-13T09:31:54;102656.84;;;4.35;71.79
10167;BME280;62970;53.130;8.244;2022-11-13T09:34:25;102658.66;;;4.38;71.31
10167;BME280;62970;53.130;8.244;2022-11-13T09:36:55;102649.34;;;4.43;71.75
10167;BME280;62970;53.130;8.244;2022-11-13T09:39:24;102642.56;;;4.47;71.65
10167;BME280;62970;53.130;8.244;2022-11-13T09:41:57;102641.84;;;4.51;71.70
10167;BME280;62970;53.130;8.244;2022-11-13T09:44:34;102645.44;;;4.56;71.96
10167;BME280;62970;53.130;8.244;2022-11-13T09:47:11;102643.91;;;4.62;71.93
10167;BME280;62970;53.130;8.244;2022-11-13T09:49:46;102642.34;;;4.67;71.61
10167;BME280;62970;53.130;8.244;2022-11-13T09:52:25;102636.47;;;4.73;71.83
10167;BME280;62970;53.130;8.244;2022-11-13T09:54:58;102640.19;;;4.81;72.01
10167;BME280;62970;53.130;8.244;2022-11-13T09:57:34;102643.84;;;4.88;71.72
10167;BME280;62970;53.130;8.244;2022-11-13T10:00:16;102635.38;;;4.93;71.54
10167;BME280;62970;53.130;8.244;2022-11-13T10:02:57;102632.09;;;4.99;71.94
10167;BME280;62970;53.130;8.244;2022-11-13T10:05:38;102639.25;;;5.07;71.62
10167;BME280;62970;53.130;8.244;2022-11-13T10:08:15;102635.97;;;5.13;71.61
10167;BME280;62970;53.130;8.244;2022-11-13T10:10:49;102633.59;;;5.21;71.89
10167;BME280;62970;53.130;8.244;2022-11-13T10:13:25;102634.63;;;5.27;71.49
10167;BME280;62970;53.130;8.244;2022-11-13T10:16:08;102634.88;;;5.35;71.55
10167;BME280;62970;53.130;8.244;2022-11-13T10:18:42;102640.22;;;5.41;71.48
10167;BME280;62970;53.130;8.244;2022-11-13T10:21:24;102632.63;;;5.47;71.67
10167;BME280;62970;53.130;8.244;2022-11-13T10:24:02;102635.41;;;5.55;71.96
10167;BME280;62970;53.130;8.244;2022-11-13T10:26:32;102633.06;;;5.64;71.64
10167;BME280;62970;53.130;8.244;2022-11-13T10:29:10;102635.84;;;5.72;71.58
10167;BME280;62970;53.130;8.244;2022-11-13T10:31:48;102627.44;;;5.80;71.84
10167;BME280;62970;53.130;8.244;2022-11-13T10:34:19;102630.25;;;5.89;71.51
10167;BME280;62970;53.130;8.244;2022-11-13T10:37:06;102628.72;;;5.97;71.50
10167;BME280;62970;53.130;8.244;2022-11-13T10:39:42;102628.94;;;6.07;71.59
10167;BME280;62970;53.130;8.244;2022-11-13T10:42:21;102627.44;;;6.15;71.28
10167;BME280;62970;53.130;8.244;2022-11-13T10:44:56;102630.22;;;6.24;71.66
10167;BME280;62970;53.130;8.244;2022-11-13T10:47:31;102618.31;;;6.32;71.42
10167;BME280;62970;53.130;8.244;2022-11-13T10:50:11;102609.84;;;6.39;71.34
10167;BME280;62970;53.130;8.244;2022-11-13T10:52:48;102601.41;;;6.48;71.18
10167;BME280;62970;53.130;8.244;2022-11-13T10:55:25;102602.41;;;6.54;70.84
10167;BME280;62970;53.130;8.244;2022-11-13T10:58:01;102587.94;;;6.64;70.50
10167;BME280;62970;53.130;8.244;2022-11-13T11:00:33;102584.63;;;6.71;70.20
10167;BME280;62970;53.130;8.244;2022-11-13T11:03:07;102583.06;;;6.79;70.14
10167;BME280;62970;53.130;8.244;2022-11-13T11:05:37;102581.50;;;6.87;69.98
10167;BME280;62970;53.130;8.244;2022-11-13T11:08:08;102578.22;;;6.96;69.86
10167;BME280;62970;53.130;8.244;2022-11-13T11:10:41;102585.28;;;7.03;69.86
10167;BME280;62970;53.130;8.244;2022-11-13T11:13:26;102580.25;;;7.11;70.17
10167;BME280;62970;53.130;8.244;2022-11-13T11:16:00;102571.72;;;7.18;69.50
10167;BME280;62970;53.130;8.244;2022-11-13T11:18:37;102565.81;;;7.23;69.64
10167;BME280;62970;53.130;8.244;2022-11-13T11:21:12;102565.06;;;7.30;69.22
10167;BME280;62970;53.130;8.244;2022-11-13T11:23:47;102558.22;;;7.34;68.93
10167;BME280;62970;53.130;8.244;2022-11-13T11:26:29;102561.78;;;7.39;69.29
10167;BME280;62970;53.130;8.244;2022-11-13T11:29:11;102561.00;;;7.43;68.81
10167;BME280;62970;53.130;8.244;2022-11-13T11:31:49;102555.03;;;7.47;68.96
10167;BME280;62970;53.130;8.244;2022-11-13T11:34:27;102557.72;;;7.53;68.74
10167;BME280;62970;53.130;8.244;2022-11-13T11:37:06;102549.13;;;7.56;69.00
10167;BME280;62970;53.130;8.244;2022-11-13T11:39:45;102550.09;;;7.62;68.45
10167;BME280;62970;53.130;8.244;2022-11-13T11:42:24;102548.47;;;7.69;68.60
10167;BME280;62970;53.130;8.244;2022-11-13T11:45:15;102543.34;;;7.74;68.29
10167;BME280;62970;53.130;8.244;2022-11-13T11:47:48;102530.47;;;7.81;68.34
10167;BME280;62970;53.130;8.244;2022-11-13T11:50:34;102533.16;;;7.86;68.63
10167;BME280;62970;53.130;8.244;2022-11-13T11:53:13;102536.72;;;7.92;67.75
10167;BME280;62970;53.130;8.244;2022-11-13T11:56:17;102536.81;;;7.99;68.21
10167;BME280;62970;53.130;8.244;2022-11-13T11:59:08;102532.56;;;8.05;68.04
10167;BME280;62970;53.130;8.244;2022-11-13T12:05:00;102531.88;;;8.17;67.61
10167;BME280;62970;53.130;8.244;2022-11-13T12:07:40;102525.03;;;8.23;67.09
10167;BME280;62970;53.130;8.244;2022-11-13T12:10:25;102520.75;;;8.27;66.94
10167;BME280;62970;53.130;8.244;2022-11-13T12:13:20;102518.22;;;8.33;67.44
10167;BME280;62970;53.130;8.244;2022-11-13T12:16:00;102523.50;;;8.38;66.82
10167;BME280;62970;53.130;8.244;2022-11-13T12:18:41;102524.44;;;8.44;66.68
10167;BME280;62970;53.130;8.244;2022-11-13T12:21:22;102513.25;;;8.50;66.58
10167;BME280;62970;53.130;8.244;2022-11-13T12:24:36;102508.09;;;8.54;66.46
10167;BME280;62970;53.130;8.244;2022-11-13T12:27:21;102509.91;;;8.60;66.47
10167;BME280;62970;53.130;8.244;2022-11-13T12:30:08;102509.97;;;8.65;66.37
10167;BME280;62970;53.130;8.244;2022-11-13T12:33:02;102500.47;;;8.68;66.16
10167;BME280;62970;53.130;8.244;2022-11-13T12:35:36;102500.50;;;8.73;65.65
10167;BME280;62970;53.130;8.244;2022-11-13T12:38:16;102497.94;;;8.76;66.08
10167;BME280;62970;53.130;8.244;2022-11-13T12:40:58;102491.06;;;8.78;65.60
10167;BME280;62970;53.130;8.244;2022-11-13T12:44:12;102488.47;;;8.78;65.45
10167;BME280;62970;53.130;8.244;2022-11-13T12:46:46;102491.97;;;8.80;65.24
10167;BME280;62970;53.130;8.244;2022-11-13T12:49:30;102482.44;;;8.80;65.21
10167;BME280;62970;53.130;8.244;2022-11-13T12:52:16;102476.38;;;8.83;64.92
10167;BME280;62970;53.130;8.244;2022-11-13T12:54:46;102479.00;;;8.86;65.13
10167;BME280;62970;53.130;8.244;2022-11-13T12:57:23;102479.00;;;8.86;64.97
10167;BME280;62970;53.130;8.244;2022-11-13T12:59:55;102471.25;;;8.89;65.01
10167;BME280;62970;53.130;8.244;2022-11-13T13:02:49;102469.53;;;8.91;65.11
10167;BME280;62970;53.130;8.244;2022-11-13T13:05:31;102473.03;;;8.95;64.96
10167;BME280;62970;53.130;8.244;2022-11-13T13:11:34;102466.16;;;9.00;64.57
10167;BME280;62970;53.130;8.244;2022-11-13T13:14:23;102457.47;;;9.01;64.55
10167;BME280;62970;53.130;8.244;2022-11-13T13:17:05;102459.25;;;9.03;64.58
10167;BME280;62970;53.130;8.244;2022-11-13T13:19:35;102460.13;;;9.07;64.20
10167;BME280;62970;53.130;8.244;2022-11-13T13:22:10;102459.28;;;9.06;64.36
10167;BME280;62970;53.130;8.244;2022-11-13T13:24:41;102456.69;;;9.08;64.58
10167;BME280;62970;53.130;8.244;2022-11-13T13:27:25;102445.41;;;9.09;64.13
10167;BME280;62970;53.130;8.244;2022-11-13T13:29:58;102443.72;;;9.12;64.53
10167;BME280;62970;53.130;8.244;2022-11-13T13:32:35;102441.13;;;9.15;64.00
10167;BME280;62970;53.130;8.244;2022-11-13T13:35:13;102438.53;;;9.17;63.86
10167;BME280;62970;53.130;8.244;2022-11-13T13:37:48;102442.03;;;9.19;64.25